In Rescue
 
Open Full Screen Window  High Contrast Mode
Wind Gusting 00 knots
03
May 20, 2019 2:01 PM CDT
Weather Information
Wind Direction
  060 °
Wind Speed
  03 kt (3 mph)
Wind Gust
  00 kt (0 mph)
Altimeter
30.14 in
Visibility
10 SM
Temperature
14° C
57° F
Dewpoint
02° C
36° F
Humidity
44%
1hr Rain Fall
00.00 in.
24hr Rain Fall
00.01 in.
Sky Condition
Clear
VFR

METAR KY63 201901Z AUTO 06003KT 10SM CLR 14/02 A3014 RMK AO2 T01420015

FAA Disclaimer: The data displayed is for advisory purposes only and is not to be used for flight planning or operations.